Time;durP1;ratioP1;P1;durP2;ratioP2;P2;SDS_P1;SDS_P2;PMS_P1;PMS_P2;Temp;Humidity;BMP_temperature;BMP_pressure;BME280_temperature;BME280_humidity;BME280_pressure;Samples;Min_cycle;Max_cycle;Signal;HPM_P1;HPM_P2
2022/07/31 00:01:37;;;;;;;13.35;7.80;;;;;;;25.49;61.89;100338.00;5056644;28;20126;-90
2022/07/31 00:04:02;;;;;;;18.15;8.23;;;;;;;25.55;61.20;100332.44;5038614;28;20032;-89
2022/07/31 00:06:28;;;;;;;14.88;8.82;;;;;;;25.50;61.04;100332.28;5055705;28;20483;-89
2022/07/31 00:08:54;;;;;;;10.73;7.63;;;;;;;25.44;60.81;100322.97;5054976;28;20024;-89
2022/07/31 00:11:19;;;;;;;13.63;7.95;;;;;;;25.39;60.94;100313.72;5037368;28;20036;-88
2022/07/31 00:13:45;;;;;;;17.48;8.32;;;;;;;25.36;61.19;100298.50;5054895;28;20024;-89
2022/07/31 00:16:10;;;;;;;18.35;8.90;;;;;;;25.44;61.30;100322.16;5054777;28;20505;-89
2022/07/31 00:18:36;;;;;;;14.25;8.80;;;;;;;25.40;61.57;100315.41;5037043;28;20037;-90
2022/07/31 00:21:02;;;;;;;14.55;7.95;;;;;;;25.45;61.43;100326.56;5036651;28;20021;-89
2022/07/31 00:23:28;;;;;;;17.55;8.85;;;;;;;25.47;61.72;100321.69;5054838;28;20098;-89
2022/07/31 00:25:53;;;;;;;15.20;9.35;;;;;;;25.45;61.76;100318.31;5054668;28;20051;-88
2022/07/31 00:28:19;;;;;;;10.65;8.07;;;;;;;25.43;61.85;100325.97;5054170;28;20479;-87
2022/07/31 00:30:44;;;;;;;11.52;8.43;;;;;;;25.40;62.07;100331.94;5053935;28;20061;-86
2022/07/31 00:33:10;;;;;;;11.85;7.88;;;;;;;25.40;62.14;100331.94;5054090;28;20052;-88
2022/07/31 00:35:35;;;;;;;9.45;7.45;;;;;;;25.38;62.06;100326.63;5054772;28;20024;-88
2022/07/31 00:38:01;;;;;;;16.58;8.35;;;;;;;25.42;62.31;100335.28;5054488;28;20398;-88
2022/07/31 00:40:27;;;;;;;9.23;7.57;;;;;;;25.37;62.41;100332.38;5055232;28;20451;-89
2022/07/31 00:42:52;;;;;;;11.57;8.70;;;;;;;25.36;62.55;100330.69;5055632;28;20021;-88
2022/07/31 00:45:18;;;;;;;13.10;9.88;;;;;;;25.50;64.58;100343.31;5055019;28;20048;-89
2022/07/31 00:47:43;;;;;;;15.70;10.90;;;;;;;25.56;67.81;100345.13;5037384;28;20033;-88
2022/07/31 00:50:10;;;;;;;23.30;12.48;;;;;;;25.45;69.86;100332.91;5054318;28;20405;-88
2022/07/31 00:52:36;;;;;;;15.25;12.77;;;;;;;25.49;71.04;100346.25;5055637;28;20391;-89
2022/07/31 00:55:01;;;;;;;14.90;11.75;;;;;;;25.58;71.63;100356.75;5067887;28;20025;-89
2022/07/31 00:57:27;;;;;;;17.70;13.35;;;;;;;25.54;72.25;100361.03;5057732;28;20025;-88
2022/07/31 00:59:54;;;;;;;19.80;11.68;;;;;;;25.54;72.42;100361.03;5075634;28;20032;-88
2022/07/31 01:02:19;;;;;;;17.02;11.70;;;;;;;25.54;72.45;100358.28;5059327;28;20026;-89
2022/07/31 01:04:45;;;;;;;13.43;11.60;;;;;;;25.59;71.54;100361.22;5077025;28;20032;-87
2022/07/31 01:07:10;;;;;;;15.43;10.32;;;;;;;25.48;70.94;100352.81;5058433;28;20409;-89
2022/07/31 01:09:36;;;;;;;23.77;15.93;;;;;;;25.57;70.27;100368.84;5076608;28;20028;-89
2022/07/31 01:12:07;;;;;;;17.50;10.82;;;;;;;25.39;69.88;100341.25;5058740;28;20056;-89
2022/07/31 01:14:39;;;;;;;14.98;9.95;;;;;;;25.49;69.49;100366.38;5073906;28;20029;-88
2022/07/31 01:17:07;;;;;;;12.20;10.50;;;;;;;25.44;69.20;100360.72;5074286;28;20024;-88
2022/07/31 01:19:39;;;;;;;17.73;11.35;;;;;;;25.47;69.39;100360.25;5056294;28;20040;-89
2022/07/31 01:22:23;;;;;;;;;;;;;;;25.50;69.23;100356.22;5056288;28;20572;-90
2022/07/31 01:25:12;;;;;;;15.85;11.30;;;;;;;25.45;69.64;100360.47;5055646;28;19966;-89
2022/07/31 01:28:14;;;;;;;20.08;11.90;;;;;;;25.40;69.37;100359.47;5074540;28;20112;-89
2022/07/31 01:30:47;;;;;;;14.48;10.63;;;;;;;25.39;68.49;100355.03;5074017;28;20368;-89
2022/07/31 01:33:17;;;;;;;13.77;11.20;;;;;;;25.31;67.98;100345.16;5073662;28;20049;-90
2022/07/31 01:35:50;;;;;;;11.85;10.27;;;;;;;25.27;67.03;100354.94;5074024;28;20017;-89
2022/07/31 01:38:22;;;;;;;16.50;10.45;;;;;;;25.20;66.81;100340.38;5055584;28;20035;-89
2022/07/31 01:40:52;;;;;;;13.77;10.10;;;;;;;25.25;66.64;100342.47;5075287;28;20490;-88
2022/07/31 01:43:21;;;;;;;15.23;10.40;;;;;;;25.23;65.84;100328.06;5077754;28;20024;-89
2022/07/31 01:45:51;;;;;;;16.58;9.77;;;;;;;25.13;65.60;100325.00;5077311;28;20021;-89
2022/07/31 01:48:17;;;;;;;17.83;9.00;;;;;;;25.17;65.96;100334.47;5077419;28;20029;-88
2022/07/31 01:50:47;;;;;;;17.52;10.07;;;;;;;25.24;66.33;100329.75;5077962;28;20394;-90
2022/07/31 01:53:16;;;;;;;16.75;10.80;;;;;;;25.29;67.10;100335.41;5078163;28;20085;-90
2022/07/31 01:55:43;;;;;;;14.55;11.43;;;;;;;25.26;67.61;100322.09;5077662;28;20100;-90
2022/07/31 01:58:10;;;;;;;17.75;12.35;;;;;;;25.29;68.47;100327.16;5078014;28;20016;-90
2022/07/31 02:00:37;;;;;;;16.08;12.25;;;;;;;25.28;68.67;100331.84;5077317;28;20031;-89
2022/07/31 02:03:04;;;;;;;18.33;14.60;;;;;;;25.37;69.97;100313.13;5077187;28;20475;-88
2022/07/31 02:05:32;;;;;;;20.90;13.25;;;;;;;25.35;70.53;100312.50;5077949;28;20021;-88
2022/07/31 02:07:58;;;;;;;22.10;14.65;;;;;;;25.31;70.86;100306.63;5077413;28;20017;-90
2022/07/31 02:10:24;;;;;;;22.23;13.18;;;;;;;25.34;71.41;100305.31;5077300;28;20029;-89
2022/07/31 02:12:50;;;;;;;19.35;14.20;;;;;;;25.37;71.34;100304.84;5077033;28;20024;-89
2022/07/31 02:15:17;;;;;;;18.17;14.02;;;;;;;25.41;71.57;100290.38;5076872;28;20529;-89
2022/07/31 02:17:45;;;;;;;18.85;14.13;;;;;;;25.47;71.24;100288.66;5077054;28;20047;-89
2022/07/31 02:20:12;;;;;;;24.70;15.63;;;;;;;25.47;70.84;100296.91;5076916;28;20028;-90
2022/07/31 02:22:37;;;;;;;21.58;14.30;;;;;;;25.42;70.78;100288.47;5076935;28;20099;-89
2022/07/31 02:25:05;;;;;;;24.05;12.82;;;;;;;25.49;70.11;100285.69;5077639;28;20048;-89
2022/07/31 02:27:32;;;;;;;20.00;13.45;;;;;;;25.39;69.83;100295.28;5079050;28;20115;-89
2022/07/31 02:30:01;;;;;;;20.00;13.65;;;;;;;25.45;70.02;100296.28;5077046;28;20017;-89
2022/07/31 02:32:28;;;;;;;16.30;13.52;;;;;;;25.39;70.44;100287.03;5076397;28;20494;-89
2022/07/31 02:34:55;;;;;;;18.73;12.85;;;;;;;25.43;70.52;100299.28;5076912;28;20063;-89
2022/07/31 02:37:23;;;;;;;20.70;13.45;;;;;;;25.46;70.65;100297.97;5076469;28;20044;-88
2022/07/31 02:39:51;;;;;;;19.30;13.98;;;;;;;25.44;70.82;100300.94;5076513;28;20101;-89
2022/07/31 02:42:16;;;;;;;18.65;13.45;;;;;;;25.45;70.78;100293.53;5058989;28;20035;-89
2022/07/31 02:44:43;;;;;;;19.02;13.57;;;;;;;25.46;70.79;100295.22;5076998;28;20394;-88
2022/07/31 02:47:10;;;;;;;19.23;14.20;;;;;;;25.45;70.78;100296.28;5076093;28;20447;-89
2022/07/31 02:49:36;;;;;;;23.85;15.63;;;;;;;25.39;70.92;100299.94;5076175;28;20028;-89
2022/07/31 02:52:03;;;;;;;22.60;13.45;;;;;;;25.38;70.71;100290.84;5075502;28;20398;-88
2022/07/31 02:54:30;;;;;;;21.85;13.18;;;;;;;25.31;70.83;100284.59;5076304;28;20024;-88
2022/07/31 02:56:57;;;;;;;25.05;13.27;;;;;;;25.39;70.41;100297.19;5076590;28;20410;-89
2022/07/31 02:59:23;;;;;;;17.83;14.23;;;;;;;25.31;70.43;100283.75;5076338;28;20020;-90
2022/07/31 03:01:48;;;;;;;16.80;13.48;;;;;;;25.39;70.57;100298.03;5076048;28;20027;-89
2022/07/31 03:04:14;;;;;;;22.35;14.10;;;;;;;25.35;70.22;100284.97;5076632;28;20029;-89
2022/07/31 03:06:39;;;;;;;19.23;15.02;;;;;;;25.33;70.36;100284.34;5058441;28;20020;-90
2022/07/31 03:09:05;;;;;;;22.42;15.25;;;;;;;25.38;70.35;100290.03;5075993;28;20074;-90
2022/07/31 03:11:30;;;;;;;22.35;13.68;;;;;;;25.39;69.59;100286.19;5075957;28;20494;-90
2022/07/31 03:13:59;;;;;;;16.92;13.73;;;;;;;25.41;69.72;100295.06;5076005;28;20020;-88
2022/07/31 03:16:26;;;;;;;22.63;14.63;;;;;;;25.34;69.89;100277.78;5076447;28;20051;-90
2022/07/31 03:18:53;;;;;;;18.35;13.57;;;;;;;25.32;70.09;100288.16;5076858;28;20084;-88
2022/07/31 03:21:19;;;;;;;18.65;13.30;;;;;;;25.33;70.31;100281.59;5076578;28;20033;-89
2022/07/31 03:23:46;;;;;;;27.88;14.32;;;;;;;25.33;70.00;100276.09;5076109;28;20025;-89
2022/07/31 03:26:13;;;;;;;17.73;14.70;;;;;;;25.38;70.05;100277.06;5076350;28;20031;-89
2022/07/31 03:28:39;;;;;;;19.60;13.68;;;;;;;25.22;70.16;100257.59;5077616;28;20016;-88
2022/07/31 03:31:06;;;;;;;27.58;15.57;;;;;;;25.31;70.42;100273.56;5058815;28;20466;-88
2022/07/31 03:33:32;;;;;;;20.00;14.35;;;;;;;25.26;70.80;100258.78;5057002;28;20048;-88
2022/07/31 03:35:58;;;;;;;24.30;15.48;;;;;;;25.30;71.19;100265.53;5075965;28;20021;-88
2022/07/31 03:38:23;;;;;;;20.50;15.73;;;;;;;25.42;71.41;100275.56;5057738;28;20119;-88
2022/07/31 03:40:49;;;;;;;20.60;16.02;;;;;;;25.34;71.75;100275.88;5076198;28;20158;-88
2022/07/31 03:43:16;;;;;;;24.00;16.17;;;;;;;25.38;72.00;100271.56;5075272;28;20147;-88
2022/07/31 03:45:43;;;;;;;24.58;16.70;;;;;;;25.36;72.17;100270.13;5057418;28;20387;-89
2022/07/31 03:48:09;;;;;;;27.17;16.25;;;;;;;25.33;72.63;100271.41;5074742;28;20063;-89
2022/07/31 03:50:36;;;;;;;23.40;18.58;;;;;;;25.34;72.61;100266.75;5057578;28;20818;-89
2022/07/31 03:53:03;;;;;;;24.52;16.55;;;;;;;25.25;73.04;100257.13;5057478;28;20024;-89
2022/07/31 03:55:30;;;;;;;37.67;24.20;;;;;;;25.32;74.03;100264.22;5075159;28;20024;-89
2022/07/31 03:57:57;;;;;;;29.48;21.77;;;;;;;25.36;74.62;100250.84;5074883;28;20031;-88
2022/07/31 04:00:26;;;;;;;32.17;22.30;;;;;;;25.37;74.91;100247.03;5074640;28;20443;-89
2022/07/31 04:02:54;;;;;;;26.08;20.35;;;;;;;25.31;75.35;100242.44;5074720;28;20080;-87
2022/07/31 04:05:20;;;;;;;29.40;20.60;;;;;;;25.42;74.93;100249.91;5074810;28;20471;-87
2022/07/31 04:07:45;;;;;;;32.55;18.55;;;;;;;25.45;73.32;100236.53;5075197;28;20033;-86
2022/07/31 04:10:11;;;;;;;26.23;16.27;;;;;;;25.51;72.21;100240.31;5074631;28;20406;-84
2022/07/31 04:12:37;;;;;;;31.75;12.73;;;;;;;25.50;71.67;100243.31;5068480;28;20475;-85
2022/07/31 04:15:03;;;;;;;28.58;19.00;;;;;;;25.54;71.55;100245.34;5054134;28;20031;-84
2022/07/31 04:17:28;;;;;;;32.72;19.17;;;;;;;25.57;72.18;100244.03;5036461;28;20032;-85
2022/07/31 04:19:54;;;;;;;34.60;19.35;;;;;;;25.69;72.58;100248.53;5054712;28;20021;-85
2022/07/31 04:22:19;;;;;;;32.53;18.08;;;;;;;25.68;72.15;100246.88;5054467;28;20189;-85
2022/07/31 04:24:45;;;;;;;26.85;18.88;;;;;;;25.68;72.67;100249.63;5054937;28;20025;-83
2022/07/31 04:27:10;;;;;;;28.20;20.30;;;;;;;25.70;73.08;100261.25;5054363;28;20028;-84
2022/07/31 04:29:36;;;;;;;32.80;22.67;;;;;;;25.74;73.66;100253.38;5054318;28;20418;-84
2022/07/31 04:32:02;;;;;;;35.50;22.75;;;;;;;25.77;74.30;100251.00;5054284;28;20021;-84
2022/07/31 04:34:28;;;;;;;42.83;23.73;;;;;;;25.75;75.10;100250.38;5053589;28;20049;-90
2022/07/31 04:36:53;;;;;;;29.40;23.42;;;;;;;25.74;75.29;100243.19;5053843;28;20096;-81
2022/07/31 04:39:19;;;;;;;35.78;22.02;;;;;;;25.77;75.60;100245.47;5054071;28;20021;-87
2022/07/31 04:41:44;;;;;;;29.08;21.45;;;;;;;25.69;75.54;100255.97;5053874;28;20028;-84
2022/07/31 04:44:10;;;;;;;27.90;22.17;;;;;;;25.69;75.22;100253.19;5065214;28;20074;-82
2022/07/31 04:46:36;;;;;;;37.75;22.63;;;;;;;25.72;75.16;100253.59;5073755;28;20078;-82
2022/07/31 04:49:01;;;;;;;34.25;21.42;;;;;;;25.77;75.43;100248.25;5072550;28;20016;-81
2022/07/31 04:51:27;;;;;;;29.02;21.00;;;;;;;25.76;75.45;100256.72;5073656;28;20032;-81
2022/07/31 04:53:52;;;;;;;30.98;21.90;;;;;;;25.79;75.03;100268.13;5073472;28;20051;-79
2022/07/31 04:56:40;;;;;;;37.05;20.85;;;;;;;25.81;75.17;100263.22;5073238;28;20017;-82
2022/07/31 04:59:08;;;;;;;28.90;20.00;;;;;;;25.85;74.59;100263.59;5055142;28;20490;-86
2022/07/31 05:01:34;;;;;;;22.33;17.83;;;;;;;25.88;73.62;100266.72;5073789;28;20069;-84
2022/07/31 05:04:00;;;;;;;30.38;16.73;;;;;;;25.97;73.31;100264.47;5055547;28;20444;-84
2022/07/31 05:06:36;;;;;;;32.28;19.60;;;;;;;26.08;72.88;100268.38;5055000;28;20033;-80
2022/07/31 05:09:04;;;;;;;35.60;17.88;;;;;;;26.15;72.73;100264.44;5053294;28;20050;-84
2022/07/31 05:11:30;;;;;;;26.25;18.58;;;;;;;26.13;71.82;100246.44;5053923;28;20021;-84
2022/07/31 05:13:57;;;;;;;31.83;16.45;;;;;;;26.35;70.52;100253.13;5053545;28;20029;-85
2022/07/31 05:16:23;;;;;;;17.23;12.80;;;;;;;26.43;69.01;100261.06;5042201;28;20502;-78
2022/07/31 05:18:50;;;;;;;20.30;12.38;;;;;;;26.47;67.50;100259.50;5073510;28;20090;-82
2022/07/31 05:21:16;;;;;;;17.17;11.38;;;;;;;26.52;66.83;100249.44;5070038;28;20033;-79
2022/07/31 05:23:43;;;;;;;22.33;10.60;;;;;;;26.55;66.28;100253.63;5052268;28;20021;-80
2022/07/31 05:26:09;;;;;;;18.75;10.00;;;;;;;26.66;65.65;100261.09;5052535;28;20025;-87
2022/07/31 05:28:37;;;;;;;11.95;9.80;;;;;;;26.78;64.78;100264.72;5053180;28;20086;-83
2022/07/31 05:31:03;;;;;;;19.48;10.88;;;;;;;26.89;64.19;100261.13;5053591;28;20075;-82
2022/07/31 05:33:28;;;;;;;29.58;11.23;;;;;;;26.91;64.28;100256.19;5053967;28;20049;-86
2022/07/31 05:35:55;;;;;;;16.90;11.05;;;;;;;27.04;64.03;100263.41;5053835;28;20078;-80
2022/07/31 05:38:21;;;;;;;14.48;9.23;;;;;;;27.08;63.43;100258.25;5052644;28;20100;-80
2022/07/31 05:40:47;;;;;;;11.07;8.88;;;;;;;27.19;62.66;100271.19;5053172;28;20109;-79
2022/07/31 05:43:12;;;;;;;16.13;9.73;;;;;;;27.25;62.47;100260.03;5052895;28;20019;-87
2022/07/31 05:45:38;;;;;;;11.23;9.25;;;;;;;27.33;61.66;100261.59;5053661;28;20458;-80
2022/07/31 05:48:04;;;;;;;16.20;8.57;;;;;;;27.35;60.73;100259.41;5052873;28;20031;-82
2022/07/31 05:50:29;;;;;;;15.27;8.35;;;;;;;27.38;60.17;100247.88;5054797;28;20048;-79
2022/07/31 05:52:55;;;;;;;10.80;7.47;;;;;;;27.52;59.96;100263.13;5054004;28;20538;-80
2022/07/31 05:55:20;;;;;;;12.27;7.90;;;;;;;27.60;59.88;100268.28;5051325;28;20061;-82
2022/07/31 05:57:47;;;;;;;15.48;7.97;;;;;;;27.70;59.76;100264.88;5052837;28;20039;-80
2022/07/31 06:00:15;;;;;;;11.52;7.85;;;;;;;27.76;59.14;100264.75;5053660;28;20483;-81
2022/07/31 06:02:41;;;;;;;9.43;7.68;;;;;;;27.79;59.05;100260.66;5052655;28;20029;-88
2022/07/31 06:05:06;;;;;;;18.30;7.57;;;;;;;27.92;59.06;100266.72;5051823;28;20016;-79
2022/07/31 06:07:32;;;;;;;12.60;7.60;;;;;;;27.97;57.99;100265.97;5053493;28;20175;-79
2022/07/31 06:09:58;;;;;;;14.35;7.88;;;;;;;28.02;57.32;100257.78;5054016;28;20055;-82
2022/07/31 06:12:23;;;;;;;14.05;8.20;;;;;;;28.15;57.51;100253.91;5058883;28;20016;-83
2022/07/31 06:14:49;;;;;;;16.48;8.15;;;;;;;28.25;57.01;100254.94;5053297;28;20394;-83
2022/07/31 06:17:14;;;;;;;15.38;7.20;;;;;;;28.33;56.45;100259.19;5054338;28;20471;-88
2022/07/31 06:19:39;;;;;;;19.38;6.97;;;;;;;28.40;56.30;100252.44;5053291;28;20110;-85
2022/07/31 06:22:05;;;;;;;8.05;6.88;;;;;;;28.54;56.13;100256.53;5054747;28;20029;-90
2022/07/31 06:24:31;;;;;;;8.80;7.80;;;;;;;28.62;55.89;100249.75;5055118;28;20021;-91
2022/07/31 06:27:00;;;;;;;8.63;7.25;;;;;;;28.74;55.34;100250.53;5054334;28;20029;-86
2022/07/31 06:29:27;;;;;;;10.93;7.50;;;;;;;28.74;54.51;100236.69;5057025;28;20029;-82
2022/07/31 06:31:53;;;;;;;21.30;7.32;;;;;;;28.88;54.39;100246.31;5057812;28;20372;-90
2022/07/31 06:34:19;;;;;;;17.48;10.68;;;;;;;28.98;54.97;100254.78;5035826;28;20511;-80
2022/07/31 06:36:44;;;;;;;17.48;11.02;;;;;;;29.04;55.63;100253.78;5055511;28;20017;-79
2022/07/31 06:39:10;;;;;;;28.40;14.40;;;;;;;29.10;55.13;100251.91;5059377;28;20025;-90
2022/07/31 06:41:46;;;;;;;13.15;9.88;;;;;;;29.16;54.87;100242.59;5077717;28;20033;-88
2022/07/31 06:44:15;;;;;;;13.60;8.07;;;;;;;29.23;54.43;100246.00;5047083;28;20499;-81
2022/07/31 06:46:40;;;;;;;15.50;8.60;;;;;;;29.30;53.48;100240.28;5056235;28;20028;-89
2022/07/31 06:49:07;;;;;;;19.02;9.70;;;;;;;29.40;54.89;100240.44;5032528;28;20407;-79
2022/07/31 06:51:32;;;;;;;18.13;9.35;;;;;;;29.49;55.08;100239.72;5036664;28;20017;-83
2022/07/31 06:53:59;;;;;;;21.73;10.35;;;;;;;29.51;55.38;100225.63;5036316;28;20033;-83
2022/07/31 06:56:25;;;;;;;13.95;9.68;;;;;;;29.59;55.04;100222.38;5055460;28;20021;-83
2022/07/31 06:58:50;;;;;;;20.40;10.48;;;;;;;29.71;54.00;100234.19;5038662;28;20035;-88
2022/07/31 07:01:16;;;;;;;13.35;8.02;;;;;;;29.66;53.65;100217.50;5038103;28;20025;-88
2022/07/31 07:03:41;;;;;;;15.25;9.68;;;;;;;29.83;54.05;100234.91;5055878;28;20551;-81
2022/07/31 07:06:06;;;;;;;14.38;9.23;;;;;;;29.87;53.94;100227.75;5055275;28;20021;-89
2022/07/31 07:08:32;;;;;;;15.00;9.27;;;;;;;29.87;53.85;100213.88;5037783;28;20074;-86
2022/07/31 07:10:57;;;;;;;13.93;9.68;;;;;;;30.01;53.26;100222.59;5055014;28;20502;-88
2022/07/31 07:13:25;;;;;;;11.23;8.43;;;;;;;29.95;52.98;100216.19;5056175;28;20021;-90
2022/07/31 07:15:50;;;;;;;17.52;10.00;;;;;;;30.08;53.31;100220.47;5055493;28;20020;-88
2022/07/31 07:18:16;;;;;;;22.15;10.65;;;;;;;30.04;53.48;100209.06;5055559;28;20340;-87
2022/07/31 07:20:41;;;;;;;18.90;10.73;;;;;;;30.09;53.64;100224.94;5037776;28;20032;-87
2022/07/31 07:23:13;;;;;;;12.20;10.13;;;;;;;30.06;53.20;100200.47;5055326;28;20017;-90
2022/07/31 07:25:39;;;;;;;19.00;10.23;;;;;;;30.00;52.94;100210.66;5055393;28;20020;-88
2022/07/31 07:28:06;;;;;;;15.48;10.18;;;;;;;30.08;53.11;100213.00;5055839;28;20514;-89
2022/07/31 07:30:32;;;;;;;25.27;10.43;;;;;;;30.17;52.94;100219.72;5055312;28;20021;-85
2022/07/31 07:32:58;;;;;;;18.88;10.13;;;;;;;30.18;52.82;100215.84;5054983;28;20127;-88
2022/07/31 07:35:24;;;;;;;13.25;9.85;;;;;;;30.24;52.46;100214.78;5055543;28;20341;-90
2022/07/31 07:37:50;;;;;;;19.60;10.35;;;;;;;30.30;52.32;100214.84;5038319;28;20033;-84
2022/07/31 07:40:16;;;;;;;16.20;10.02;;;;;;;30.33;52.29;100201.28;5055397;28;20040;-85
2022/07/31 07:42:41;;;;;;;21.63;10.20;;;;;;;30.35;52.12;100198.22;5055048;28;20451;-85
2022/07/31 07:45:08;;;;;;;15.90;9.82;;;;;;;30.37;52.08;100184.91;5055533;28;20403;-83
2022/07/31 07:47:33;;;;;;;15.35;9.45;;;;;;;30.49;51.23;100185.59;5055689;28;20025;-91
2022/07/31 07:49:59;;;;;;;11.73;8.65;;;;;;;30.53;51.42;100184.81;5038146;28;20033;-89
2022/07/31 07:52:24;;;;;;;12.00;8.43;;;;;;;30.74;50.85;100203.28;5038082;28;20119;-89
2022/07/31 07:54:49;;;;;;;15.90;8.63;;;;;;;30.78;50.74;100192.50;5055218;28;20025;-89
2022/07/31 07:57:20;;;;;;;17.88;8.50;;;;;;;30.78;49.65;100184.16;5036686;28;20028;-88
2022/07/31 07:59:47;;;;;;;14.07;8.10;;;;;;;30.99;48.71;100199.03;5054961;28;20032;-90
2022/07/31 08:02:13;;;;;;;20.92;9.15;;;;;;;31.01;48.48;100197.66;5036551;28;20033;-88
2022/07/31 08:04:39;;;;;;;12.20;7.82;;;;;;;31.07;48.24;100191.00;5054742;28;20033;-86
2022/07/31 08:07:04;;;;;;;16.15;7.47;;;;;;;31.12;47.88;100185.50;5054490;28;20025;-83
2022/07/31 08:09:31;;;;;;;8.35;6.93;;;;;;;31.24;47.45;100182.50;5055150;28;20025;-90
2022/07/31 08:11:56;;;;;;;11.20;8.30;;;;;;;31.45;46.85;100191.75;5055121;28;20029;-84
2022/07/31 08:14:21;;;;;;;10.13;6.03;;;;;;;31.49;45.97;100182.63;5054369;28;20501;-83
2022/07/31 08:16:47;;;;;;;13.18;7.63;;;;;;;31.53;45.16;100199.63;5056370;28;20055;-91
2022/07/31 08:19:12;;;;;;;13.45;7.00;;;;;;;31.55;44.43;100183.47;5055253;28;20029;-84
2022/07/31 08:21:38;;;;;;;15.65;6.60;;;;;;;31.73;44.27;100200.50;5055827;28;20398;-83
2022/07/31 08:24:04;;;;;;;21.95;6.38;;;;;;;31.90;44.12;100203.03;5037571;28;20032;-84
2022/07/31 08:27:22;;;;;;;12.27;7.07;;;;;;;31.97;43.61;100192.47;5055714;28;20084;-84
2022/07/31 08:29:16;;;;;;;8.38;6.00;;;;;;;32.08;42.61;100201.72;5055579;28;20462;-85
2022/07/31 08:31:42;;;;;;;21.67;8.50;;;;;;;32.19;45.47;100190.31;5053104;28;20033;-82
2022/07/31 08:34:07;;;;;;;11.40;8.35;;;;;;;32.17;46.70;100189.75;5054078;28;20567;-85
2022/07/31 08:36:32;;;;;;;17.25;8.23;;;;;;;32.32;47.03;100198.09;5054063;28;20024;-84
2022/07/31 08:38:58;;;;;;;21.38;8.52;;;;;;;32.33;47.22;100193.38;5054930;28;20029;-83
2022/07/31 08:41:24;;;;;;;14.02;9.20;;;;;;;32.42;47.92;100196.44;5054384;28;20021;-85
2022/07/31 08:43:50;;;;;;;15.15;9.10;;;;;;;32.39;48.04;100197.81;5054106;28;20086;-83
2022/07/31 08:46:16;;;;;;;19.17;9.15;;;;;;;32.30;48.21;100200.34;5055663;28;20033;-81
2022/07/31 08:48:44;;;;;;;16.52;9.70;;;;;;;31.98;49.40;100202.50;5056387;28;20475;-85
2022/07/31 08:51:11;;;;;;;20.58;9.73;;;;;;;31.61;50.50;100196.28;5053135;28;20502;-85
2022/07/31 08:53:38;;;;;;;19.35;9.75;;;;;;;31.57;50.49;100200.72;5055101;28;20104;-91
2022/07/31 08:56:08;;;;;;;17.90;9.88;;;;;;;31.31;50.69;100198.94;5039242;28;20029;-89
2022/07/31 08:58:33;;;;;;;21.00;11.80;;;;;;;31.29;51.64;100191.69;5036622;28;20040;-84
2022/07/31 09:01:00;;;;;;;13.98;10.73;;;;;;;31.34;52.11;100184.50;5054058;28;20036;-88
2022/07/31 09:03:25;;;;;;;16.02;9.93;;;;;;;31.44;51.72;100178.94;5055143;28;20033;-88
2022/07/31 09:05:51;;;;;;;19.20;9.52;;;;;;;31.59;50.49;100181.84;5036403;28;20094;-81
2022/07/31 09:08:16;;;;;;;34.10;12.35;;;;;;;31.62;50.07;100186.84;5053025;28;20461;-83
2022/07/31 09:10:42;;;;;;;12.70;8.93;;;;;;;31.78;49.48;100185.75;5053919;28;20065;-81
2022/07/31 09:13:17;;;;;;;40.15;9.80;;;;;;;31.83;49.85;100176.59;5054479;28;20040;-85
2022/07/31 09:15:43;;;;;;;18.85;9.07;;;;;;;31.95;49.88;100175.25;5052320;28;20040;-80
2022/07/31 09:18:20;;;;;;;14.77;10.30;;;;;;;32.08;48.85;100179.47;5053300;28;20029;-83
2022/07/31 09:20:57;;;;;;;21.17;9.82;;;;;;;32.10;48.72;100178.06;5035955;28;20181;-82
2022/07/31 09:23:25;;;;;;;19.88;12.23;;;;;;;32.08;49.18;100174.72;5055464;28;20059;-89
2022/07/31 09:25:59;;;;;;;14.52;9.43;;;;;;;31.92;48.70;100152.69;5052733;28;20048;-84
2022/07/31 09:28:36;;;;;;;20.20;9.88;;;;;;;32.06;48.24;100168.59;5053732;28;20439;-80
2022/07/31 09:31:03;;;;;;;15.02;10.43;;;;;;;32.11;48.68;100165.81;5052311;28;20025;-81
2022/07/31 09:33:29;;;;;;;13.68;8.57;;;;;;;31.85;47.93;100157.69;5053390;28;20427;-80
2022/07/31 09:35:56;;;;;;;17.10;8.52;;;;;;;31.86;47.36;100160.22;5053684;28;20472;-85
2022/07/31 09:38:32;;;;;;;14.95;8.63;;;;;;;31.91;46.57;100151.84;5053971;28;20107;-87
2022/07/31 09:41:18;;;;;;;18.73;7.80;;;;;;;32.00;45.71;100154.91;5036097;28;20028;-81
2022/07/31 09:43:52;;;;;;;16.52;8.65;;;;;;;31.97;44.92;100150.75;5052731;28;20028;-82
2022/07/31 09:46:17;;;;;;;26.05;11.85;;;;;;;31.98;45.29;100146.03;5053074;28;20025;-83
2022/07/31 09:48:50;;;;;;;79.13;48.20;;;;;;;32.02;43.44;100158.25;5055014;28;20028;-83
2022/07/31 09:51:15;;;;;;;20.65;9.77;;;;;;;32.03;42.83;100154.41;5053788;28;20475;-84
2022/07/31 09:53:44;;;;;;;15.65;5.68;;;;;;;32.16;42.33;100154.69;5053378;28;20120;-87
2022/07/31 09:56:11;;;;;;;18.23;6.10;;;;;;;32.22;42.28;100158.31;5053899;28;20032;-91
2022/07/31 09:58:39;;;;;;;15.32;6.15;;;;;;;32.22;42.56;100153.59;5054240;28;20066;-87
2022/07/31 10:01:07;;;;;;;11.27;5.35;;;;;;;32.33;42.08;100160.81;5053422;28;20079;-90
2022/07/31 10:03:36;;;;;;;16.52;6.43;;;;;;;32.41;42.60;100144.66;5052857;28;20127;-88
2022/07/31 10:06:03;;;;;;;7.72;4.93;;;;;;;32.50;42.44;100159.69;5037223;28;20482;-85
2022/07/31 10:08:34;;;;;;;25.08;7.18;;;;;;;32.53;42.63;100159.13;5046911;28;20025;-82
2022/07/31 10:11:01;;;;;;;17.35;5.38;;;;;;;32.57;42.59;100154.72;5071088;28;20081;-84
2022/07/31 10:13:28;;;;;;;17.02;5.93;;;;;;;32.59;42.28;100169.19;5039231;28;20190;-85
2022/07/31 10:15:57;;;;;;;18.13;6.07;;;;;;;32.43;42.82;100170.28;5059453;28;20486;-89
2022/07/31 10:18:26;;;;;;;9.95;5.22;;;;;;;32.15;42.81;100150.25;5039157;28;20029;-87
2022/07/31 10:20:54;;;;;;;13.65;5.20;;;;;;;32.19;43.83;100175.56;5056787;28;20025;-85
2022/07/31 10:23:22;;;;;;;15.50;5.40;;;;;;;32.12;43.82;100175.84;5056454;28;20025;-88
2022/07/31 10:25:57;;;;;;;13.88;6.00;;;;;;;32.04;44.58;100181.97;5038387;28;20035;-81
2022/07/31 10:28:23;;;;;;;13.70;7.13;;;;;;;31.97;44.60;100175.78;5056355;28;20186;-76
2022/07/31 10:30:49;;;;;;;14.43;5.05;;;;;;;31.89;43.88;100172.72;5054220;28;20033;-77
2022/07/31 10:33:16;;;;;;;8.60;5.38;;;;;;;31.66;44.00;100157.38;5052398;28;20060;-76
2022/07/31 10:35:55;;;;;;;13.77;6.18;;;;;;;31.69;43.93;100166.00;5052812;28;20114;-76
2022/07/31 10:38:32;;;;;;;10.55;5.85;;;;;;;31.59;44.23;100165.97;5061376;28;20077;-76
2022/07/31 10:41:10;;;;;;;6.03;4.57;;;;;;;31.66;44.00;100154.59;5060745;28;20375;-76
2022/07/31 10:43:48;;;;;;;6.88;4.80;;;;;;;31.79;44.97;100154.06;5058122;28;20107;-77
2022/07/31 10:46:24;;;;;;;8.80;5.03;;;;;;;31.79;44.38;100156.84;5042020;28;20043;-78
2022/07/31 10:48:53;;;;;;;5.75;4.97;;;;;;;31.80;44.11;100153.78;5054873;28;20031;-83
2022/07/31 10:51:21;;;;;;;9.88;5.35;;;;;;;31.84;43.57;100148.50;5049169;28;20025;-80
2022/07/31 10:54:00;;;;;;;6.70;5.22;;;;;;;31.88;43.68;100151.56;5049655;28;20037;-78
2022/07/31 10:56:26;;;;;;;11.68;7.43;;;;;;;32.04;43.38;100151.34;5053459;28;20257;-75
2022/07/31 10:58:57;;;;;;;17.15;5.70;;;;;;;32.24;43.39;100143.00;5071560;28;20114;-79
2022/07/31 11:01:25;;;;;;;9.32;5.40;;;;;;;32.42;42.97;100137.97;5074044;28;20059;-77
2022/07/31 11:03:59;;;;;;;7.35;4.72;;;;;;;32.46;42.65;100137.13;5073869;28;20029;-76
2022/07/31 11:06:25;;;;;;;7.97;6.00;;;;;;;32.48;42.25;100140.47;5074364;28;20039;-78
2022/07/31 11:08:53;;;;;;;12.93;5.65;;;;;;;32.37;42.11;100127.69;5075009;28;20143;-80
2022/07/31 11:11:31;;;;;;;9.57;5.78;;;;;;;32.25;42.53;100129.91;5055302;28;20550;-80
2022/07/31 11:13:58;;;;;;;7.93;5.30;;;;;;;32.29;42.72;100145.75;5053948;28;20506;-80
2022/07/31 11:16:23;;;;;;;14.23;8.32;;;;;;;32.29;42.69;100137.41;5054472;28;20364;-77